Time;durP1;ratioP1;P1;durP2;ratioP2;P2;SDS_P1;SDS_P2;PMS_P1;PMS_P2;Temp;Humidity;BMP_temperature;BMP_pressure;BME280_temperature;BME280_humidity;BME280_pressure;Samples;Min_cycle;Max_cycle;Signal;HPM_P1;HPM_P2
2023/07/26 00:02:22;;;;;;;5.63;4.70;;;12.70;99.90;;;;;;5037326;28;20209;-77
2023/07/26 00:04:51;;;;;;;7.00;5.27;;;12.70;99.90;;;;;;5036823;28;20698;-75
2023/07/26 00:07:19;;;;;;;5.87;5.17;;;12.70;99.90;;;;;;5036205;28;20729;-80
2023/07/26 00:09:48;;;;;;;7.33;5.43;;;12.80;99.90;;;;;;5033362;28;20236;-81
2023/07/26 00:12:16;;;;;;;6.63;5.67;;;12.80;99.90;;;;;;5032757;28;21500;-80
2023/07/26 00:14:44;;;;;;;6.00;5.40;;;12.80;99.90;;;;;;5033179;28;20367;-81
2023/07/26 00:17:13;;;;;;;6.90;5.80;;;12.80;99.90;;;;;;5032440;28;20228;-80
2023/07/26 00:19:40;;;;;;;6.07;5.47;;;12.80;99.90;;;;;;5032512;28;20296;-81
2023/07/26 00:22:08;;;;;;;8.73;5.90;;;12.80;99.90;;;;;;5031995;28;20295;-80
2023/07/26 00:24:36;;;;;;;5.70;5.20;;;12.80;99.90;;;;;;5032435;28;20298;-79
2023/07/26 00:27:06;;;;;;;9.63;6.00;;;12.80;99.90;;;;;;5032159;28;20220;-79
2023/07/26 00:29:34;;;;;;;7.87;5.80;;;12.80;99.90;;;;;;5031961;28;20225;-79
2023/07/26 00:32:02;;;;;;;6.50;5.80;;;12.70;99.90;;;;;;5031576;28;20682;-80
2023/07/26 00:34:30;;;;;;;7.07;5.57;;;12.70;99.90;;;;;;5032297;28;20209;-81
2023/07/26 00:37:03;;;;;;;6.00;5.40;;;12.70;99.90;;;;;;5032023;28;20217;-78
2023/07/26 00:39:31;;;;;;;6.33;5.40;;;12.70;99.90;;;;;;5031774;28;20284;-81
2023/07/26 00:41:59;;;;;;;6.13;5.50;;;12.70;99.90;;;;;;5034311;28;20611;-79
2023/07/26 00:44:29;;;;;;;7.13;5.30;;;12.70;99.90;;;;;;5052183;28;20277;-81
2023/07/26 00:46:57;;;;;;;7.30;5.57;;;12.70;99.90;;;;;;5049613;28;20204;-81
2023/07/26 00:49:26;;;;;;;8.83;5.67;;;12.70;99.90;;;;;;5031904;28;20221;-79
2023/07/26 00:51:54;;;;;;;8.10;5.70;;;12.70;99.90;;;;;;5031904;28;20208;-81
2023/07/26 00:54:22;;;;;;;7.57;5.47;;;12.70;99.90;;;;;;5031640;28;20707;-81
2023/07/26 00:56:51;;;;;;;7.30;5.53;;;12.60;99.90;;;;;;5031903;28;20212;-81
2023/07/26 00:59:19;;;;;;;7.10;5.33;;;12.60;99.90;;;;;;5032188;28;20236;-79
2023/07/26 01:01:49;;;;;;;6.17;4.97;;;12.60;99.90;;;;;;5031754;28;20212;-82
2023/07/26 01:04:17;;;;;;;6.63;5.87;;;12.60;99.90;;;;;;5031808;28;20316;-81
2023/07/26 01:06:56;;;;;;;7.23;5.47;;;12.60;99.90;;;;;;5031389;28;20304;-81
2023/07/26 01:09:32;;;;;;;7.90;5.27;;;12.60;99.90;;;;;;5031558;28;20612;-81
2023/07/26 01:12:06;;;;;;;7.07;5.33;;;12.60;99.90;;;;;;5031196;28;20264;-81
2023/07/26 01:14:38;;;;;;;8.73;5.53;;;12.60;99.90;;;;;;5031496;28;20220;-81
2023/07/26 01:17:07;;;;;;;6.40;5.63;;;12.60;99.90;;;;;;5031139;28;20236;-80
2023/07/26 01:19:35;;;;;;;7.90;5.47;;;12.60;99.90;;;;;;5031302;28;20209;-80
2023/07/26 01:22:05;;;;;;;6.90;5.77;;;12.60;99.90;;;;;;5031659;28;20256;-81
2023/07/26 01:24:34;;;;;;;8.37;5.90;;;12.60;99.90;;;;;;5031518;28;20271;-79
2023/07/26 01:27:01;;;;;;;8.03;5.80;;;12.60;99.90;;;;;;5031728;28;20219;-81
2023/07/26 01:29:29;;;;;;;7.30;5.70;;;12.60;99.90;;;;;;5031532;28;20768;-81
2023/07/26 01:31:57;;;;;;;9.13;6.33;;;12.60;99.90;;;;;;5035207;28;20546;-80
2023/07/26 01:34:26;;;;;;;9.03;6.30;;;12.60;99.90;;;;;;5035424;28;20267;-81
2023/07/26 01:36:54;;;;;;;7.80;6.23;;;12.60;99.90;;;;;;5038346;28;20601;-81
2023/07/26 01:39:25;;;;;;;7.20;6.50;;;12.50;99.90;;;;;;5055151;28;20266;-80
2023/07/26 01:41:53;;;;;;;9.30;6.90;;;12.50;99.90;;;;;;5044566;28;20612;-76
2023/07/26 01:44:21;;;;;;;8.57;6.63;;;12.60;99.90;;;;;;5035913;28;20336;-77
2023/07/26 01:46:52;;;;;;;9.87;6.60;;;12.60;99.90;;;;;;5035500;28;20267;-79
2023/07/26 01:49:21;;;;;;;11.37;7.33;;;12.50;99.90;;;;;;5035282;28;20197;-80
2023/07/26 01:51:49;;;;;;;9.50;7.33;;;12.60;99.90;;;;;;5050373;28;20208;-79
2023/07/26 01:54:18;;;;;;;8.30;7.00;;;12.50;99.90;;;;;;5055007;28;20568;-79
2023/07/26 01:56:49;;;;;;;8.70;7.77;;;12.60;99.90;;;;;;5055284;28;20208;-80
2023/07/26 01:59:17;;;;;;;9.80;7.60;;;12.50;99.90;;;;;;5054803;28;20208;-80
2023/07/26 02:01:45;;;;;;;10.03;7.30;;;12.50;99.90;;;;;;5036338;28;20221;-80
2023/07/26 02:04:13;;;;;;;12.80;7.80;;;12.50;99.90;;;;;;5047927;28;20251;-81
2023/07/26 02:06:41;;;;;;;9.37;7.60;;;12.50;99.90;;;;;;5053898;28;20243;-81
2023/07/26 02:09:09;;;;;;;9.13;7.40;;;12.50;99.90;;;;;;5054538;28;20247;-80
2023/07/26 02:11:37;;;;;;;8.97;7.37;;;12.50;99.90;;;;;;5034767;28;20247;-80
2023/07/26 02:14:06;;;;;;;10.13;8.07;;;12.50;99.90;;;;;;5034536;28;20212;-78
2023/07/26 02:16:35;;;;;;;9.03;8.13;;;12.50;99.90;;;;;;5034952;28;20217;-76
2023/07/26 02:19:03;;;;;;;12.47;8.10;;;12.40;99.90;;;;;;5036096;28;20232;-77
2023/07/26 02:21:31;;;;;;;11.10;7.70;;;12.40;99.90;;;;;;5034930;28;20205;-74
2023/07/26 02:23:59;;;;;;;8.73;7.83;;;12.50;99.90;;;;;;5034625;28;20212;-78
2023/07/26 02:26:27;;;;;;;10.50;8.10;;;12.50;99.90;;;;;;5034326;28;20288;-77
2023/07/26 02:28:55;;;;;;;10.00;7.77;;;12.40;99.90;;;;;;5034356;28;20359;-76
2023/07/26 02:31:25;;;;;;;10.23;7.80;;;12.40;99.90;;;;;;5034543;28;20231;-79
2023/07/26 02:33:53;;;;;;;8.60;7.43;;;12.40;99.90;;;;;;5034104;28;20212;-80
2023/07/26 02:36:21;;;;;;;10.43;7.23;;;12.30;99.90;;;;;;5034154;28;20208;-79
2023/07/26 02:38:49;;;;;;;11.30;7.90;;;12.30;99.90;;;;;;5034146;28;20255;-79
2023/07/26 02:41:17;;;;;;;8.77;7.70;;;12.30;99.90;;;;;;5052194;28;20208;-80
2023/07/26 02:43:45;;;;;;;7.80;7.00;;;12.30;99.90;;;;;;5052648;28;20220;-79
2023/07/26 02:46:13;;;;;;;10.93;7.43;;;12.20;99.90;;;;;;5033984;28;20313;-81
2023/07/26 02:48:43;;;;;;;10.30;7.33;;;12.30;99.90;;;;;;5034436;28;20213;-81
2023/07/26 02:51:11;;;;;;;7.90;6.80;;;12.30;99.90;;;;;;5033876;28;20209;-81
2023/07/26 02:53:40;;;;;;;9.60;7.10;;;12.30;99.90;;;;;;5033263;28;20356;-80
2023/07/26 02:56:08;;;;;;;9.30;7.30;;;12.20;99.90;;;;;;5033719;28;20204;-80
2023/07/26 02:58:36;;;;;;;9.00;7.03;;;12.20;99.90;;;;;;5033617;28;20718;-81
2023/07/26 03:01:04;;;;;;;9.30;7.00;;;12.20;99.90;;;;;;5033310;28;20301;-81
2023/07/26 03:03:32;;;;;;;10.10;7.13;;;12.20;99.90;;;;;;5033337;28;20208;-81
2023/07/26 03:06:02;;;;;;;11.57;7.03;;;12.20;99.90;;;;;;5033639;28;20275;-81
2023/07/26 03:08:30;;;;;;;8.07;6.80;;;12.10;99.90;;;;;;5033873;28;20213;-81
2023/07/26 03:10:58;;;;;;;10.63;6.70;;;12.10;99.90;;;;;;5033367;28;20209;-80
2023/07/26 03:13:26;;;;;;;8.40;5.97;;;12.10;99.90;;;;;;5032817;28;20275;-80
2023/07/26 03:15:54;;;;;;;6.53;5.93;;;12.10;99.90;;;;;;5033696;28;20205;-80
2023/07/26 03:18:22;;;;;;;7.50;5.87;;;12.00;99.90;;;;;;5033534;28;20221;-79
2023/07/26 03:20:51;;;;;;;7.73;6.07;;;12.00;99.90;;;;;;5033094;28;20212;-80
2023/07/26 03:23:20;;;;;;;6.97;5.13;;;12.00;99.90;;;;;;5033132;28;20213;-79
2023/07/26 03:25:48;;;;;;;8.13;5.27;;;12.00;99.90;;;;;;5033403;28;20324;-81
2023/07/26 03:28:16;;;;;;;10.37;5.27;;;11.90;99.90;;;;;;5033365;28;20201;-81
2023/07/26 03:30:44;;;;;;;7.77;5.10;;;11.90;99.90;;;;;;5035385;28;20264;-81
2023/07/26 03:33:12;;;;;;;10.10;5.30;;;11.90;99.90;;;;;;5042671;28;20201;-82
2023/07/26 03:35:40;;;;;;;8.80;5.70;;;11.90;99.90;;;;;;5041765;28;20204;-81
2023/07/26 03:38:08;;;;;;;5.80;4.63;;;11.90;99.90;;;;;;5044784;28;20381;-80
2023/07/26 03:40:38;;;;;;;7.23;5.47;;;11.90;99.90;;;;;;5035144;28;20212;-81
2023/07/26 03:43:06;;;;;;;7.90;5.33;;;11.90;99.90;;;;;;5042863;28;20213;-79
2023/07/26 03:45:34;;;;;;;7.23;4.97;;;11.90;99.90;;;;;;5040934;28;20252;-80
2023/07/26 03:48:02;;;;;;;9.30;5.33;;;11.90;99.90;;;;;;5043534;28;20205;-80
2023/07/26 03:50:30;;;;;;;7.93;5.27;;;11.80;99.90;;;;;;5041402;28;20201;-80
2023/07/26 03:52:59;;;;;;;8.60;5.47;;;11.80;99.90;;;;;;5033794;28;20647;-80
2023/07/26 03:55:27;;;;;;;12.27;5.53;;;11.90;99.90;;;;;;5032901;28;20271;-80
2023/07/26 03:57:57;;;;;;;6.03;5.30;;;11.90;99.90;;;;;;5032591;28;20205;-81
2023/07/26 04:00:25;;;;;;;7.40;5.40;;;11.80;99.90;;;;;;5033200;28;20236;-80
2023/07/26 04:02:54;;;;;;;8.70;5.63;;;11.90;99.90;;;;;;5032091;28;20213;-80
2023/07/26 04:05:22;;;;;;;8.27;5.93;;;11.80;99.90;;;;;;5032814;28;20219;-80
2023/07/26 04:07:50;;;;;;;11.27;6.07;;;11.90;99.90;;;;;;5032501;28;20213;-80
2023/07/26 04:10:18;;;;;;;7.43;6.20;;;11.90;99.90;;;;;;5032195;28;20729;-80
2023/07/26 04:12:46;;;;;;;7.33;6.43;;;12.00;99.90;;;;;;5032068;28;20224;-81
2023/07/26 04:15:16;;;;;;;9.60;7.33;;;12.00;99.90;;;;;;5032411;28;20209;-80
2023/07/26 04:17:44;;;;;;;8.07;6.83;;;12.00;99.90;;;;;;5032533;28;20275;-80
2023/07/26 04:20:12;;;;;;;11.53;7.67;;;12.00;99.90;;;;;;5032186;28;20244;-80
2023/07/26 04:22:40;;;;;;;10.17;7.03;;;12.00;99.90;;;;;;5032063;28;20213;-81
2023/07/26 04:25:09;;;;;;;9.33;7.47;;;12.00;99.90;;;;;;5031803;28;20209;-80
2023/07/26 04:27:38;;;;;;;12.90;7.13;;;12.00;99.90;;;;;;5031882;28;20690;-80
2023/07/26 04:30:07;;;;;;;8.87;7.43;;;12.10;99.90;;;;;;5032036;28;20212;-80
2023/07/26 04:32:37;;;;;;;10.07;7.20;;;12.10;99.90;;;;;;5048344;28;20216;-81
2023/07/26 04:35:05;;;;;;;9.60;7.37;;;12.20;99.90;;;;;;5051736;28;20215;-79
2023/07/26 04:37:33;;;;;;;10.60;7.10;;;12.10;99.90;;;;;;5051766;28;20218;-80
2023/07/26 04:40:01;;;;;;;9.83;7.60;;;12.20;99.90;;;;;;5051782;28;20355;-79
2023/07/26 04:42:29;;;;;;;10.73;7.87;;;12.20;99.90;;;;;;5033373;28;20264;-80
2023/07/26 04:44:57;;;;;;;11.37;8.00;;;12.20;99.90;;;;;;5031570;28;20213;-77
2023/07/26 04:47:25;;;;;;;9.43;8.00;;;12.20;99.90;;;;;;5031456;28;20233;-80
2023/07/26 04:49:55;;;;;;;9.80;7.70;;;12.30;99.90;;;;;;5031793;28;20212;-80
2023/07/26 04:52:23;;;;;;;11.90;8.13;;;12.30;99.90;;;;;;5031456;28;20225;-79
2023/07/26 04:54:52;;;;;;;9.53;8.00;;;12.40;99.90;;;;;;5031652;28;20271;-80
2023/07/26 04:57:20;;;;;;;8.40;7.50;;;12.40;99.90;;;;;;5031916;28;20213;-79
2023/07/26 04:59:48;;;;;;;10.60;7.73;;;12.40;99.90;;;;;;5031618;28;20581;-80
2023/07/26 05:02:16;;;;;;;9.20;7.37;;;12.50;99.90;;;;;;5031093;28;20240;-79
2023/07/26 05:04:44;;;;;;;8.60;7.37;;;12.50;99.90;;;;;;5031036;28;20212;-80
2023/07/26 05:07:14;;;;;;;10.40;7.23;;;12.60;99.90;;;;;;5032862;28;20237;-79
2023/07/26 05:09:42;;;;;;;9.13;7.07;;;12.60;99.90;;;;;;5047935;28;20283;-78
2023/07/26 05:12:10;;;;;;;7.73;6.90;;;12.60;99.90;;;;;;5031132;28;20220;-77
2023/07/26 05:14:41;;;;;;;10.90;7.43;;;12.60;99.90;;;;;;5031901;28;20217;-80
2023/07/26 05:17:09;;;;;;;10.77;6.67;;;12.70;99.90;;;;;;5031843;28;20247;-76
2023/07/26 05:19:37;;;;;;;8.43;7.10;;;12.70;99.90;;;;;;5040234;28;20205;-80
2023/07/26 05:22:06;;;;;;;7.13;6.43;;;12.80;99.90;;;;;;5048735;28;20217;-78
2023/07/26 05:24:38;;;;;;;9.10;6.97;;;12.90;99.90;;;;;;5047186;28;20197;-79
2023/07/26 05:27:07;;;;;;;7.70;6.80;;;13.00;99.90;;;;;;5041727;28;20233;-79
2023/07/26 05:29:35;;;;;;;11.90;6.80;;;13.10;99.90;;;;;;5031518;28;20725;-81
2023/07/26 05:32:03;;;;;;;8.13;6.43;;;13.20;99.90;;;;;;5030618;28;20217;-81
2023/07/26 05:34:31;;;;;;;9.67;6.93;;;13.20;99.90;;;;;;5030591;28;20666;-80
2023/07/26 05:37:00;;;;;;;8.53;6.73;;;13.20;99.90;;;;;;5049854;28;20208;-79
2023/07/26 05:39:28;;;;;;;9.20;6.77;;;13.30;99.90;;;;;;5031971;28;20307;-79
2023/07/26 05:41:57;;;;;;;8.67;6.83;;;13.20;99.90;;;;;;5031111;28;20209;-80
2023/07/26 05:44:26;;;;;;;8.37;7.37;;;13.20;99.90;;;;;;5032421;28;20219;-78
2023/07/26 05:46:54;;;;;;;9.00;7.50;;;13.10;99.90;;;;;;5030588;28;20228;-81
2023/07/26 05:49:22;;;;;;;8.50;7.47;;;13.10;99.90;;;;;;5031723;28;20205;-81
2023/07/26 05:51:50;;;;;;;11.30;8.33;;;13.10;99.90;;;;;;5031342;28;20296;-80
2023/07/26 05:54:18;;;;;;;11.50;8.10;;;13.10;99.90;;;;;;5031470;28;20283;-80
2023/07/26 05:56:46;;;;;;;9.13;7.07;;;13.20;99.90;;;;;;5031337;28;20204;-81
2023/07/26 05:59:16;;;;;;;11.03;7.73;;;13.30;99.90;;;;;;5031103;28;20209;-80
2023/07/26 06:01:44;;;;;;;9.47;7.90;;;13.30;99.90;;;;;;5031388;28;20236;-80
2023/07/26 06:04:12;;;;;;;12.77;8.13;;;13.50;99.90;;;;;;5031204;28;20283;-81
2023/07/26 06:06:41;;;;;;;9.80;8.10;;;13.60;99.90;;;;;;5030977;28;20229;-81
2023/07/26 06:09:09;;;;;;;12.23;8.23;;;13.50;99.90;;;;;;5031890;28;20213;-79
2023/07/26 06:11:37;;;;;;;9.43;8.53;;;13.60;99.90;;;;;;5031078;28;20244;-80
2023/07/26 06:14:19;;;;;;;10.30;8.60;;;13.60;99.90;;;;;;5031395;28;20193;-78
2023/07/26 06:16:47;;;;;;;9.77;8.40;;;13.60;99.90;;;;;;5033741;28;20212;-80
2023/07/26 06:19:16;;;;;;;10.80;7.90;;;13.60;99.90;;;;;;5034749;28;20208;-82
2023/07/26 06:21:44;;;;;;;10.03;8.10;;;13.60;99.90;;;;;;5034583;28;20209;-80
2023/07/26 06:24:12;;;;;;;9.40;8.40;;;13.60;99.90;;;;;;5034361;28;20213;-80
2023/07/26 06:26:41;;;;;;;9.47;8.47;;;13.60;99.90;;;;;;5034287;28;20219;-78
2023/07/26 06:29:09;;;;;;;11.97;8.57;;;13.60;99.90;;;;;;5034391;28;20209;-81
2023/07/26 06:31:38;;;;;;;10.10;8.57;;;13.70;99.90;;;;;;5034528;28;20216;-77
2023/07/26 06:34:07;;;;;;;11.03;9.13;;;13.70;99.90;;;;;;5040658;28;20211;-81
2023/07/26 06:36:35;;;;;;;12.10;8.87;;;13.70;99.90;;;;;;5054438;28;20618;-82
2023/07/26 06:39:04;;;;;;;17.10;9.50;;;13.70;99.90;;;;;;5042568;28;20628;-82
2023/07/26 06:41:33;;;;;;;15.63;9.47;;;13.80;99.90;;;;;;5034467;28;20263;-80
2023/07/26 06:44:01;;;;;;;14.03;8.60;;;13.80;99.90;;;;;;5033885;28;20676;-77
2023/07/26 06:46:29;;;;;;;11.80;8.90;;;14.00;99.90;;;;;;5034469;28;20216;-79
2023/07/26 06:48:59;;;;;;;10.67;8.60;;;14.10;99.90;;;;;;5033905;28;20647;-81
2023/07/26 06:51:27;;;;;;;12.67;8.73;;;14.20;99.90;;;;;;5033567;28;20208;-83
2023/07/26 06:53:55;;;;;;;10.00;9.00;;;14.20;99.90;;;;;;5032182;28;20228;-82
2023/07/26 06:56:23;;;;;;;10.97;9.30;;;14.30;99.90;;;;;;5031937;28;20216;-77
2023/07/26 06:58:53;;;;;;;10.70;8.53;;;14.40;99.90;;;;;;5032260;28;20213;-77
2023/07/26 07:01:21;;;;;;;11.37;8.67;;;14.40;99.90;;;;;;5031959;28;20220;-82
2023/07/26 07:03:50;;;;;;;11.07;8.37;;;14.50;99.90;;;;;;5031943;28;20236;-79
2023/07/26 07:06:40;;;;;;;9.83;7.83;;;14.60;99.90;;;;;;5031780;28;20219;-78
2023/07/26 07:09:08;;;;;;;10.50;8.43;;;14.70;99.90;;;;;;5033597;28;20221;-76
2023/07/26 07:11:37;;;;;;;8.80;7.73;;;14.60;99.90;;;;;;5033826;28;20315;-78
2023/07/26 07:14:05;;;;;;;12.40;8.97;;;14.50;99.90;;;;;;5033775;28;20263;-78
2023/07/26 07:16:37;;;;;;;12.60;9.30;;;14.30;99.90;;;;;;5033924;28;20193;-81
2023/07/26 07:19:06;;;;;;;10.73;9.23;;;14.20;99.90;;;;;;5035218;28;20273;-78
2023/07/26 07:21:34;;;;;;;12.13;10.03;;;14.10;99.90;;;;;;5037974;28;20228;-77
2023/07/26 07:24:05;;;;;;;12.63;9.73;;;14.00;99.90;;;;;;5039748;28;20236;-75
2023/07/26 07:26:33;;;;;;;13.13;11.07;;;13.90;99.90;;;;;;5044835;28;20292;-77
2023/07/26 07:29:02;;;;;;;14.83;11.93;;;13.80;99.90;;;;;;5040034;28;20283;-76
2023/07/26 07:31:30;;;;;;;18.07;11.97;;;13.70;99.90;;;;;;5040971;28;20213;-79
2023/07/26 07:33:59;;;;;;;12.53;9.30;;;13.70;99.90;;;;;;5058971;28;20299;-77
2023/07/26 07:36:27;;;;;;;12.50;7.20;;;13.20;99.90;;;;;;5043378;28;20212;-77
2023/07/26 07:38:56;;;;;;;10.50;7.37;;;12.90;99.90;;;;;;5036393;28;20205;-80
2023/07/26 07:41:25;;;;;;;12.57;8.83;;;12.60;99.90;;;;;;5035027;28;20655;-80
2023/07/26 07:43:53;;;;;;;13.47;10.70;;;12.50;99.90;;;;;;5046305;28;20208;-79
2023/07/26 07:46:25;;;;;;;18.83;13.13;;;12.50;99.90;;;;;;5053922;28;20208;-80
2023/07/26 07:48:53;;;;;;;17.57;14.80;;;12.50;99.90;;;;;;5054493;28;20551;-79
2023/07/26 07:51:21;;;;;;;16.63;15.00;;;12.50;99.90;;;;;;5054071;28;20209;-78
2023/07/26 07:53:49;;;;;;;18.33;16.43;;;12.60;99.90;;;;;;5053542;28;20690;-77
2023/07/26 07:56:18;;;;;;;17.83;16.00;;;12.70;99.90;;;;;;5054123;28;20254;-79
2023/07/26 07:58:47;;;;;;;18.00;15.37;;;12.80;99.90;;;;;;5053652;28;20217;-79
2023/07/26 08:01:15;;;;;;;16.30;14.70;;;13.10;99.90;;;;;;5044789;28;20209;-79
2023/07/26 08:03:44;;;;;;;15.30;13.47;;;13.30;99.90;;;;;;5033818;28;20606;-81
2023/07/26 08:06:12;;;;;;;16.23;13.57;;;13.60;99.90;;;;;;5033622;28;20560;-81
2023/07/26 08:08:40;;;;;;;13.73;11.77;;;14.00;99.90;;;;;;5032002;28;20235;-81
2023/07/26 08:11:09;;;;;;;12.63;10.77;;;14.50;99.90;;;;;;5032743;28;20213;-81
2023/07/26 08:13:37;;;;;;;12.77;11.30;;;14.70;99.90;;;;;;5032165;28;20577;-81
2023/07/26 08:16:07;;;;;;;13.00;10.80;;;14.80;99.90;;;;;;5032357;28;20296;-80
2023/07/26 08:18:36;;;;;;;14.57;11.27;;;14.70;99.90;;;;;;5033001;28;20259;-79
2023/07/26 08:21:04;;;;;;;13.97;11.10;;;14.70;99.90;;;;;;5032671;28;20213;-78
2023/07/26 08:23:33;;;;;;;13.80;9.93;;;14.80;99.90;;;;;;5032464;28;20208;-75
2023/07/26 08:26:05;;;;;;;11.00;9.33;;;15.10;99.90;;;;;;5032333;28;20213;-75
2023/07/26 08:28:33;;;;;;;10.60;9.30;;;15.20;99.90;;;;;;5032722;28;20240;-79
2023/07/26 08:31:02;;;;;;;10.50;9.40;;;15.40;99.90;;;;;;5036785;28;20208;-78
2023/07/26 08:33:31;;;;;;;11.83;9.20;;;15.30;99.90;;;;;;5052045;28;20211;-76
2023/07/26 08:36:01;;;;;;;13.40;9.43;;;15.20;99.90;;;;;;5052564;28;20216;-77
2023/07/26 08:38:29;;;;;;;11.07;9.30;;;15.00;99.90;;;;;;5048914;28;20544;-80
2023/07/26 08:40:57;;;;;;;9.77;8.70;;;14.80;99.90;;;;;;5032563;28;20205;-81
2023/07/26 08:43:31;;;;;;;14.13;9.20;;;14.70;99.90;;;;;;5032195;28;20256;-79
2023/07/26 08:46:02;;;;;;;10.73;9.43;;;14.60;99.90;;;;;;5015570;28;20548;-80
2023/07/26 08:48:33;;;;;;;11.60;8.83;;;14.60;99.90;;;;;;5033306;28;20307;-78
2023/07/26 08:51:02;;;;;;;10.17;8.37;;;14.50;99.90;;;;;;5036173;28;20730;-78
2023/07/26 08:53:31;;;;;;;10.63;8.63;;;14.70;99.90;;;;;;5032074;28;20291;-78
2023/07/26 08:55:59;;;;;;;10.33;8.67;;;14.70;99.90;;;;;;5032564;28;20257;-77
2023/07/26 08:58:28;;;;;;;10.70;7.60;;;15.10;99.90;;;;;;5032205;28;20205;-77
2023/07/26 09:00:58;;;;;;;9.33;6.80;;;15.90;99.90;;;;;;5032744;28;20209;-79
2023/07/26 09:03:27;;;;;;;9.30;6.47;;;16.40;99.90;;;;;;5032217;28;20279;-79
2023/07/26 09:06:05;;;;;;;11.23;6.40;;;16.30;99.90;;;;;;5032595;28;20299;-78
2023/07/26 09:08:33;;;;;;;6.77;5.67;;;16.20;99.90;;;;;;5032368;28;20315;-78
2023/07/26 09:11:03;;;;;;;7.23;5.93;;;16.20;99.90;;;;;;5032854;28;20283;-80
2023/07/26 09:13:31;;;;;;;7.50;5.43;;;16.00;99.90;;;;;;5032174;28;20255;-77
2023/07/26 09:16:01;;;;;;;9.53;5.30;;;16.10;99.90;;;;;;5032642;28;20679;-76
2023/07/26 09:18:30;;;;;;;6.67;5.13;;;16.70;99.90;;;;;;5032716;28;20217;-77
2023/07/26 09:21:03;;;;;;;6.50;4.63;;;17.20;99.90;;;;;;5032350;28;20295;-78
2023/07/26 09:23:31;;;;;;;5.77;4.30;;;17.60;99.90;;;;;;5032517;28;20208;-76
2023/07/26 09:26:02;;;;;;;5.10;3.90;;;17.90;99.90;;;;;;5035905;28;20444;-77
2023/07/26 09:28:30;;;;;;;6.43;4.07;;;17.90;99.90;;;;;;5032653;28;20228;-79
2023/07/26 09:30:59;;;;;;;5.30;4.20;;;18.40;99.90;;;;;;5042841;28;20231;-76
2023/07/26 09:33:29;;;;;;;5.80;4.00;;;18.30;99.90;;;;;;5049884;28;20228;-76
2023/07/26 09:35:57;;;;;;;7.67;3.63;;;18.40;99.90;;;;;;5050562;28;20236;-77
2023/07/26 09:38:27;;;;;;;7.47;4.00;;;18.80;99.90;;;;;;5049952;28;20217;-78
2023/07/26 09:40:55;;;;;;;6.43;4.10;;;18.60;99.90;;;;;;5036856;28;20209;-75
2023/07/26 09:43:31;;;;;;;7.10;3.97;;;18.60;99.90;;;;;;5043842;28;20220;-77
2023/07/26 09:46:00;;;;;;;7.37;3.90;;;18.60;99.90;;;;;;5052432;28;20662;-77
2023/07/26 09:48:34;;;;;;;6.63;3.67;;;18.00;99.90;;;;;;5052117;28;20224;-76
2023/07/26 09:51:06;;;;;;;5.77;3.90;;;17.70;99.90;;;;;;5049493;28;20220;-76
2023/07/26 09:53:40;;;;;;;6.30;3.50;;;17.90;99.90;;;;;;5035842;28;20236;-76
2023/07/26 09:56:09;;;;;;;5.47;3.60;;;18.00;99.90;;;;;;5037025;28;20699;-76
2023/07/26 09:58:43;;;;;;;5.40;3.13;;;18.30;99.90;;;;;;5035945;28;20627;-74
2023/07/26 10:01:13;;;;;;;3.70;3.00;;;18.50;99.90;;;;;;5050905;28;20734;-76
2023/07/26 10:03:45;;;;;;;5.67;3.10;;;18.20;99.90;;;;;;5054933;28;20306;-76
2023/07/26 10:06:14;;;;;;;5.03;3.00;;;19.10;99.90;;;;;;5055406;28;20215;-78
2023/07/26 10:08:45;;;;;;;5.03;2.60;;;20.10;99.90;;;;;;5038947;28;20323;-78
2023/07/26 10:11:15;;;;;;;3.20;2.13;;;21.10;99.90;;;;;;5035016;28;20204;-80
2023/07/26 10:13:46;;;;;;;4.27;2.30;;;21.80;99.90;;;;;;5034564;28;20199;-79
2023/07/26 10:16:14;;;;;;;6.63;2.43;;;22.20;99.90;;;;;;5042414;28;20566;-76
2023/07/26 10:18:44;;;;;;;3.23;2.00;;;22.60;95.60;;;;;;5055426;28;20231;-80
2023/07/26 10:21:13;;;;;;;2.73;1.80;;;22.70;95.00;;;;;;5055177;28;20208;-80
2023/07/26 10:23:46;;;;;;;2.77;1.60;;;22.60;94.50;;;;;;5050703;28;20205;-78
2023/07/26 10:26:16;;;;;;;4.90;1.90;;;22.50;95.30;;;;;;5034744;28;20209;-79
2023/07/26 10:28:45;;;;;;;5.13;2.03;;;22.20;97.40;;;;;;5043447;28;20721;-79
2023/07/26 10:31:13;;;;;;;5.97;2.20;;;21.80;96.70;;;;;;5054868;28;20224;-77
2023/07/26 10:33:45;;;;;;;2.03;1.50;;;21.30;95.00;;;;;;5048275;28;20231;-78
2023/07/26 10:36:15;;;;;;;4.53;1.80;;;21.90;93.90;;;;;;5034978;28;20209;-76
2023/07/26 10:38:50;;;;;;;2.40;1.60;;;22.40;93.20;;;;;;5034810;28;20228;-81
2023/07/26 10:41:22;;;;;;;3.87;1.70;;;22.20;90.70;;;;;;5034945;28;20296;-77
2023/07/26 10:43:51;;;;;;;2.57;1.70;;;21.80;93.40;;;;;;5046023;28;20207;-77
2023/07/26 10:46:20;;;;;;;3.83;1.80;;;22.50;91.80;;;;;;5049134;28;20270;-77
2023/07/26 10:48:48;;;;;;;2.97;1.53;;;22.50;92.40;;;;;;5034343;28;20730;-79
2023/07/26 10:51:24;;;;;;;3.37;1.83;;;22.80;91.40;;;;;;5034632;28;20229;-79
2023/07/26 10:53:55;;;;;;;3.97;1.50;;;22.10;90.70;;;;;;5034289;28;20229;-77
2023/07/26 10:56:25;;;;;;;5.50;1.87;;;21.40;93.70;;;;;;5034386;28;20299;-78
2023/07/26 10:58:58;;;;;;;3.73;1.70;;;20.80;93.40;;;;;;5034958;28;20735;-77
2023/07/26 11:01:39;;;;;;;3.83;1.73;;;21.40;94.20;;;;;;5034336;28;20205;-77
2023/07/26 11:04:12;;;;;;;2.97;1.67;;;22.00;89.70;;;;;;5033991;28;20209;-79
2023/07/26 11:06:56;;;;;;;2.87;1.67;;;22.00;90.90;;;;;;5034976;28;20264;-79
2023/07/26 11:09:27;;;;;;;3.30;1.50;;;21.50;87.20;;;;;;5034777;28;20209;-76
2023/07/26 11:11:58;;;;;;;3.53;1.73;;;20.70;91.90;;;;;;5033896;28;20213;-77
2023/07/26 11:14:28;;;;;;;3.07;1.63;;;20.10;92.00;;;;;;5034695;28;20287;-78
2023/07/26 11:16:58;;;;;;;6.07;1.80;;;19.70;95.50;;;;;;5034643;28;20216;-78
2023/07/26 11:19:28;;;;;;;3.37;1.60;;;19.50;97.50;;;;;;5034514;28;20251;-77
2023/07/26 11:22:04;;;;;;;3.90;1.60;;;19.30;99.90;;;;;;5034048;28;20236;-77
2023/07/26 11:24:34;;;;;;;5.03;1.67;;;19.00;99.90;;;;;;5034026;28;20193;-77
2023/07/26 11:27:05;;;;;;;2.53;1.40;;;18.80;99.90;;;;;;5040050;28;20255;-76
2023/07/26 11:29:34;;;;;;;4.30;1.43;;;18.60;99.90;;;;;;5041334;28;20585;-76
2023/07/26 11:32:03;;;;;;;3.17;1.60;;;18.50;99.90;;;;;;5033098;28;20683;-76
2023/07/26 11:34:31;;;;;;;2.73;1.40;;;19.00;99.90;;;;;;5033782;28;20209;-77
2023/07/26 11:37:07;;;;;;;3.53;1.77;;;19.40;99.90;;;;;;5035337;28;20206;-80
2023/07/26 11:39:36;;;;;;;2.73;1.60;;;19.70;97.70;;;;;;5033768;28;20219;-79
2023/07/26 11:42:05;;;;;;;2.17;1.40;;;20.20;97.60;;;;;;5033562;28;20213;-81
2023/07/26 11:44:35;;;;;;;2.27;1.30;;;20.40;93.80;;;;;;5034186;28;20315;-78
2023/07/26 11:47:03;;;;;;;4.97;1.43;;;20.20;90.60;;;;;;5039454;28;20204;-78
2023/07/26 11:49:33;;;;;;;3.17;1.37;;;20.10;90.60;;;;;;5055857;28;20230;-77
2023/07/26 11:52:01;;;;;;;3.27;1.27;;;19.80;93.60;;;;;;5054771;28;20211;-79
2023/07/26 11:54:30;;;;;;;2.77;1.40;;;19.60;93.80;;;;;;5049708;28;20235;-77
2023/07/26 11:57:00;;;;;;;2.63;1.50;;;19.60;96.80;;;;;;5033970;28;20255;-76
2023/07/26 11:59:28;;;;;;;4.03;1.50;;;19.10;97.80;;;;;;5033893;28;20205;-76
2023/07/26 12:01:57;;;;;;;3.77;1.80;;;18.70;99.50;;;;;;5032975;28;20255;-76
2023/07/26 12:04:25;;;;;;;5.20;1.80;;;18.50;99.90;;;;;;5033378;28;20219;-76
2023/07/26 12:06:53;;;;;;;4.30;2.07;;;18.60;99.90;;;;;;5032847;28;20320;-75
2023/07/26 12:09:21;;;;;;;2.97;1.70;;;18.50;99.90;;;;;;5035446;28;20647;-75
2023/07/26 12:11:52;;;;;;;4.57;1.90;;;18.50;99.90;;;;;;5052781;28;20232;-77
2023/07/26 12:14:23;;;;;;;3.70;2.00;;;18.70;99.90;;;;;;5053267;28;20262;-78
2023/07/26 12:16:52;;;;;;;4.27;1.63;;;18.10;99.90;;;;;;5042461;28;20232;-78
2023/07/26 12:19:22;;;;;;;3.47;1.50;;;16.90;99.90;;;;;;5034377;28;20850;-76
2023/07/26 12:21:51;;;;;;;8.00;1.53;;;15.80;99.90;;;;;;5032940;28;20212;-78
2023/07/26 12:24:20;;;;;;;5.93;1.80;;;15.00;99.90;;;;;;5032514;28;20262;-79
2023/07/26 12:26:48;;;;;;;6.27;1.70;;;14.10;99.90;;;;;;5048752;28;20219;-76
2023/07/26 12:29:17;;;;;;;6.03;1.60;;;13.50;99.90;;;;;;5052893;28;20267;-81
2023/07/26 12:31:47;;;;;;;5.00;1.40;;;13.10;99.90;;;;;;5050428;28;20236;-77
2023/07/26 12:34:16;;;;;;;4.60;1.80;;;12.80;99.90;;;;;;5052623;28;20671;-78
2023/07/26 12:36:50;;;;;;;7.17;1.83;;;12.50;99.90;;;;;;5052842;28;20216;-78
2023/07/26 12:39:22;;;;;;;4.43;1.70;;;12.50;99.90;;;;;;5053025;28;20276;-78
2023/07/26 12:41:50;;;;;;;2.30;1.80;;;12.30;99.90;;;;;;5032585;28;20207;-80
2023/07/26 12:44:18;;;;;;;2.87;1.90;;;12.10;99.90;;;;;;5032873;28;20215;-77
2023/07/26 12:46:48;;;;;;;8.63;2.00;;;12.00;99.90;;;;;;5033008;28;20220;-78
2023/07/26 12:49:19;;;;;;;4.03;2.23;;;12.00;99.90;;;;;;5032471;28;20212;-80
2023/07/26 12:51:48;;;;;;;5.57;2.60;;;12.00;99.90;;;;;;5032651;28;20237;-76
2023/07/26 12:54:17;;;;;;;2.87;1.80;;;11.80;99.90;;;;;;5032873;28;20224;-77